sensor_id;sensor_type;location;lat;lon;timestamp;P1;durP1;ratioP1;P2;durP2;ratioP2
10226;SDS011;15634;48.766;2.272;2023-12-07T00:01:35;50.67;;;22.20;;
10226;SDS011;15634;48.766;2.272;2023-12-07T00:04:02;48.22;;;22.20;;
10226;SDS011;15634;48.766;2.272;2023-12-07T00:06:28;49.85;;;21.80;;
10226;SDS011;15634;48.766;2.272;2023-12-07T00:08:54;50.40;;;22.80;;
10226;SDS011;15634;48.766;2.272;2023-12-07T00:11:21;54.55;;;22.60;;
10226;SDS011;15634;48.766;2.272;2023-12-07T00:13:48;59.08;;;22.00;;
10226;SDS011;15634;48.766;2.272;2023-12-07T00:16:14;48.22;;;21.67;;
10226;SDS011;15634;48.766;2.272;2023-12-07T00:18:40;43.15;;;19.27;;
10226;SDS011;15634;48.766;2.272;2023-12-07T00:21:07;45.65;;;19.65;;
10226;SDS011;15634;48.766;2.272;2023-12-07T00:23:34;38.55;;;19.17;;
10226;SDS011;15634;48.766;2.272;2023-12-07T00:26:00;40.38;;;19.40;;
10226;SDS011;15634;48.766;2.272;2023-12-07T00:28:25;38.38;;;18.50;;
10226;SDS011;15634;48.766;2.272;2023-12-07T00:30:51;43.75;;;17.75;;
10226;SDS011;15634;48.766;2.272;2023-12-07T00:33:17;39.90;;;18.00;;
10226;SDS011;15634;48.766;2.272;2023-12-07T00:35:43;40.65;;;18.42;;
10226;SDS011;15634;48.766;2.272;2023-12-07T00:38:09;37.78;;;17.92;;
10226;SDS011;15634;48.766;2.272;2023-12-07T00:40:35;40.58;;;17.75;;
10226;SDS011;15634;48.766;2.272;2023-12-07T00:43:03;39.95;;;18.02;;
10226;SDS011;15634;48.766;2.272;2023-12-07T00:45:29;38.08;;;17.73;;
10226;SDS011;15634;48.766;2.272;2023-12-07T00:47:55;41.28;;;18.05;;
10226;SDS011;15634;48.766;2.272;2023-12-07T00:50:21;37.63;;;17.55;;
10226;SDS011;15634;48.766;2.272;2023-12-07T00:52:47;39.38;;;17.38;;
10226;SDS011;15634;48.766;2.272;2023-12-07T00:55:13;44.13;;;17.85;;
10226;SDS011;15634;48.766;2.272;2023-12-07T00:57:39;42.08;;;18.63;;
10226;SDS011;15634;48.766;2.272;2023-12-07T01:00:05;39.42;;;17.90;;
10226;SDS011;15634;48.766;2.272;2023-12-07T01:02:32;41.05;;;18.05;;
10226;SDS011;15634;48.766;2.272;2023-12-07T01:04:58;43.40;;;18.25;;
10226;SDS011;15634;48.766;2.272;2023-12-07T01:07:24;42.20;;;17.40;;
10226;SDS011;15634;48.766;2.272;2023-12-07T01:09:50;41.75;;;18.73;;
10226;SDS011;15634;48.766;2.272;2023-12-07T01:12:16;41.30;;;18.73;;
10226;SDS011;15634;48.766;2.272;2023-12-07T01:14:42;38.95;;;18.35;;
10226;SDS011;15634;48.766;2.272;2023-12-07T01:17:08;39.20;;;18.15;;
10226;SDS011;15634;48.766;2.272;2023-12-07T01:19:34;38.20;;;18.17;;
10226;SDS011;15634;48.766;2.272;2023-12-07T01:22:00;43.40;;;19.35;;
10226;SDS011;15634;48.766;2.272;2023-12-07T01:24:25;42.85;;;18.45;;
10226;SDS011;15634;48.766;2.272;2023-12-07T01:26:51;44.45;;;18.55;;
10226;SDS011;15634;48.766;2.272;2023-12-07T01:29:17;37.95;;;17.80;;
10226;SDS011;15634;48.766;2.272;2023-12-07T01:31:43;40.15;;;18.50;;
10226;SDS011;15634;48.766;2.272;2023-12-07T01:34:09;51.10;;;19.27;;
10226;SDS011;15634;48.766;2.272;2023-12-07T01:36:36;45.00;;;18.77;;
10226;SDS011;15634;48.766;2.272;2023-12-07T01:39:01;42.35;;;19.10;;
10226;SDS011;15634;48.766;2.272;2023-12-07T01:41:27;42.72;;;18.98;;
10226;SDS011;15634;48.766;2.272;2023-12-07T01:43:53;42.05;;;19.00;;
10226;SDS011;15634;48.766;2.272;2023-12-07T01:46:19;45.08;;;20.45;;
10226;SDS011;15634;48.766;2.272;2023-12-07T01:48:45;44.95;;;18.65;;
10226;SDS011;15634;48.766;2.272;2023-12-07T01:51:14;50.08;;;19.20;;
10226;SDS011;15634;48.766;2.272;2023-12-07T01:53:40;40.10;;;18.58;;
10226;SDS011;15634;48.766;2.272;2023-12-07T01:56:06;35.38;;;17.70;;
10226;SDS011;15634;48.766;2.272;2023-12-07T01:58:32;42.08;;;18.58;;
10226;SDS011;15634;48.766;2.272;2023-12-07T02:00:59;44.78;;;19.27;;
10226;SDS011;15634;48.766;2.272;2023-12-07T02:03:25;39.80;;;18.27;;
10226;SDS011;15634;48.766;2.272;2023-12-07T02:05:52;40.00;;;17.50;;
10226;SDS011;15634;48.766;2.272;2023-12-07T02:08:18;38.08;;;17.95;;
10226;SDS011;15634;48.766;2.272;2023-12-07T02:10:44;39.72;;;17.58;;
10226;SDS011;15634;48.766;2.272;2023-12-07T02:13:09;37.50;;;18.35;;
10226;SDS011;15634;48.766;2.272;2023-12-07T02:15:35;44.13;;;18.92;;
10226;SDS011;15634;48.766;2.272;2023-12-07T02:20:39;40.05;;;17.45;;
10226;SDS011;15634;48.766;2.272;2023-12-07T02:23:09;37.80;;;17.42;;
10226;SDS011;15634;48.766;2.272;2023-12-07T02:25:40;37.28;;;17.80;;
10226;SDS011;15634;48.766;2.272;2023-12-07T02:28:16;37.15;;;17.35;;
10226;SDS011;15634;48.766;2.272;2023-12-07T02:30:42;43.17;;;18.40;;
10226;SDS011;15634;48.766;2.272;2023-12-07T02:33:08;42.47;;;18.45;;
10226;SDS011;15634;48.766;2.272;2023-12-07T02:35:34;34.35;;;17.35;;
10226;SDS011;15634;48.766;2.272;2023-12-07T02:38:01;36.60;;;17.17;;
10226;SDS011;15634;48.766;2.272;2023-12-07T02:40:27;40.35;;;16.67;;
10226;SDS011;15634;48.766;2.272;2023-12-07T02:42:53;34.45;;;16.40;;
10226;SDS011;15634;48.766;2.272;2023-12-07T02:45:20;36.17;;;17.33;;
10226;SDS011;15634;48.766;2.272;2023-12-07T02:47:46;36.80;;;16.33;;
10226;SDS011;15634;48.766;2.272;2023-12-07T02:50:12;34.45;;;17.13;;
10226;SDS011;15634;48.766;2.272;2023-12-07T02:52:38;38.08;;;17.23;;
10226;SDS011;15634;48.766;2.272;2023-12-07T02:55:04;39.17;;;17.10;;
10226;SDS011;15634;48.766;2.272;2023-12-07T02:57:31;35.20;;;17.38;;
10226;SDS011;15634;48.766;2.272;2023-12-07T03:00:00;34.38;;;16.83;;
10226;SDS011;15634;48.766;2.272;2023-12-07T03:02:31;35.83;;;17.15;;
10226;SDS011;15634;48.766;2.272;2023-12-07T03:05:00;35.03;;;17.08;;
10226;SDS011;15634;48.766;2.272;2023-12-07T03:07:26;37.13;;;17.23;;
10226;SDS011;15634;48.766;2.272;2023-12-07T03:09:51;34.33;;;16.80;;
10226;SDS011;15634;48.766;2.272;2023-12-07T03:12:17;34.83;;;17.08;;
10226;SDS011;15634;48.766;2.272;2023-12-07T03:14:43;35.33;;;16.55;;
10226;SDS011;15634;48.766;2.272;2023-12-07T03:17:09;35.50;;;17.73;;
10226;SDS011;15634;48.766;2.272;2023-12-07T03:19:38;34.15;;;16.55;;
10226;SDS011;15634;48.766;2.272;2023-12-07T03:22:05;35.05;;;16.75;;
10226;SDS011;15634;48.766;2.272;2023-12-07T03:24:37;36.08;;;16.92;;
10226;SDS011;15634;48.766;2.272;2023-12-07T03:27:03;31.60;;;15.98;;
10226;SDS011;15634;48.766;2.272;2023-12-07T03:29:30;34.58;;;17.20;;
10226;SDS011;15634;48.766;2.272;2023-12-07T03:31:56;39.15;;;17.13;;
10226;SDS011;15634;48.766;2.272;2023-12-07T03:34:22;30.70;;;15.55;;
10226;SDS011;15634;48.766;2.272;2023-12-07T03:36:48;29.88;;;16.15;;
10226;SDS011;15634;48.766;2.272;2023-12-07T03:39:14;32.85;;;16.17;;
10226;SDS011;15634;48.766;2.272;2023-12-07T03:41:43;31.95;;;15.85;;
10226;SDS011;15634;48.766;2.272;2023-12-07T03:44:08;30.70;;;15.07;;
10226;SDS011;15634;48.766;2.272;2023-12-07T03:46:34;33.33;;;16.40;;
10226;SDS011;15634;48.766;2.272;2023-12-07T03:49:00;35.22;;;17.27;;
10226;SDS011;15634;48.766;2.272;2023-12-07T03:51:27;30.38;;;16.38;;
10226;SDS011;15634;48.766;2.272;2023-12-07T03:53:53;31.40;;;15.02;;
10226;SDS011;15634;48.766;2.272;2023-12-07T03:56:26;30.42;;;15.32;;
10226;SDS011;15634;48.766;2.272;2023-12-07T03:58:52;31.20;;;15.35;;
10226;SDS011;15634;48.766;2.272;2023-12-07T04:01:22;33.80;;;16.38;;
10226;SDS011;15634;48.766;2.272;2023-12-07T04:03:51;30.58;;;15.00;;
10226;SDS011;15634;48.766;2.272;2023-12-07T04:06:17;28.58;;;14.95;;
10226;SDS011;15634;48.766;2.272;2023-12-07T04:08:43;29.98;;;15.48;;
10226;SDS011;15634;48.766;2.272;2023-12-07T04:11:11;35.17;;;16.33;;
10226;SDS011;15634;48.766;2.272;2023-12-07T04:13:37;26.65;;;15.02;;
10226;SDS011;15634;48.766;2.272;2023-12-07T04:16:03;30.27;;;15.35;;
10226;SDS011;15634;48.766;2.272;2023-12-07T04:18:29;34.08;;;16.55;;
10226;SDS011;15634;48.766;2.272;2023-12-07T04:20:54;31.40;;;15.43;;
10226;SDS011;15634;48.766;2.272;2023-12-07T04:23:21;29.30;;;15.52;;
10226;SDS011;15634;48.766;2.272;2023-12-07T04:25:46;27.50;;;15.32;;
10226;SDS011;15634;48.766;2.272;2023-12-07T04:28:12;31.60;;;15.02;;
10226;SDS011;15634;48.766;2.272;2023-12-07T04:30:38;29.75;;;15.10;;
10226;SDS011;15634;48.766;2.272;2023-12-07T04:33:04;34.45;;;14.27;;
10226;SDS011;15634;48.766;2.272;2023-12-07T04:35:30;26.90;;;15.55;;
10226;SDS011;15634;48.766;2.272;2023-12-07T04:37:56;24.50;;;14.00;;
10226;SDS011;15634;48.766;2.272;2023-12-07T04:40:22;29.60;;;13.88;;
10226;SDS011;15634;48.766;2.272;2023-12-07T04:42:49;25.00;;;13.85;;
10226;SDS011;15634;48.766;2.272;2023-12-07T04:45:15;27.42;;;13.18;;
10226;SDS011;15634;48.766;2.272;2023-12-07T04:47:41;23.10;;;13.20;;
10226;SDS011;15634;48.766;2.272;2023-12-07T04:50:07;24.27;;;13.30;;
10226;SDS011;15634;48.766;2.272;2023-12-07T04:52:33;25.80;;;13.40;;
10226;SDS011;15634;48.766;2.272;2023-12-07T04:54:59;24.60;;;13.07;;
10226;SDS011;15634;48.766;2.272;2023-12-07T04:57:25;22.13;;;12.50;;
10226;SDS011;15634;48.766;2.272;2023-12-07T04:59:50;23.65;;;13.20;;
10226;SDS011;15634;48.766;2.272;2023-12-07T05:02:16;26.50;;;13.45;;
10226;SDS011;15634;48.766;2.272;2023-12-07T05:04:43;24.73;;;13.70;;
10226;SDS011;15634;48.766;2.272;2023-12-07T05:07:10;22.17;;;13.32;;
10226;SDS011;15634;48.766;2.272;2023-12-07T05:09:36;22.00;;;12.85;;
10226;SDS011;15634;48.766;2.272;2023-12-07T05:12:01;26.55;;;13.77;;
10226;SDS011;15634;48.766;2.272;2023-12-07T05:14:27;27.48;;;14.00;;
10226;SDS011;15634;48.766;2.272;2023-12-07T05:16:53;24.05;;;13.10;;
10226;SDS011;15634;48.766;2.272;2023-12-07T05:19:20;24.23;;;12.43;;
10226;SDS011;15634;48.766;2.272;2023-12-07T05:21:46;22.35;;;12.68;;
10226;SDS011;15634;48.766;2.272;2023-12-07T05:24:13;24.45;;;12.65;;
10226;SDS011;15634;48.766;2.272;2023-12-07T05:26:40;23.65;;;12.60;;
10226;SDS011;15634;48.766;2.272;2023-12-07T05:29:06;21.80;;;12.68;;
10226;SDS011;15634;48.766;2.272;2023-12-07T05:31:32;21.38;;;12.40;;
10226;SDS011;15634;48.766;2.272;2023-12-07T05:33:58;22.40;;;12.48;;
10226;SDS011;15634;48.766;2.272;2023-12-07T05:36:24;19.98;;;11.90;;
10226;SDS011;15634;48.766;2.272;2023-12-07T05:38:51;20.13;;;12.35;;
10226;SDS011;15634;48.766;2.272;2023-12-07T05:41:16;21.85;;;12.10;;
10226;SDS011;15634;48.766;2.272;2023-12-07T05:43:42;23.65;;;12.63;;
10226;SDS011;15634;48.766;2.272;2023-12-07T05:46:08;40.03;;;20.20;;
10226;SDS011;15634;48.766;2.272;2023-12-07T05:48:33;31.50;;;17.05;;
10226;SDS011;15634;48.766;2.272;2023-12-07T05:51:01;19.20;;;11.75;;
10226;SDS011;15634;48.766;2.272;2023-12-07T05:53:27;20.15;;;11.77;;
10226;SDS011;15634;48.766;2.272;2023-12-07T05:55:54;21.02;;;11.75;;
10226;SDS011;15634;48.766;2.272;2023-12-07T05:58:20;18.83;;;10.82;;
10226;SDS011;15634;48.766;2.272;2023-12-07T06:00:46;19.73;;;11.65;;
10226;SDS011;15634;48.766;2.272;2023-12-07T06:03:12;21.48;;;11.27;;
10226;SDS011;15634;48.766;2.272;2023-12-07T06:05:38;16.75;;;10.57;;
10226;SDS011;15634;48.766;2.272;2023-12-07T06:08:04;18.63;;;11.30;;
10226;SDS011;15634;48.766;2.272;2023-12-07T06:10:30;18.13;;;10.50;;
10226;SDS011;15634;48.766;2.272;2023-12-07T06:12:56;22.08;;;11.27;;
10226;SDS011;15634;48.766;2.272;2023-12-07T06:15:25;17.88;;;10.68;;
10226;SDS011;15634;48.766;2.272;2023-12-07T06:17:52;21.05;;;12.32;;
10226;SDS011;15634;48.766;2.272;2023-12-07T06:20:19;20.60;;;12.30;;
10226;SDS011;15634;48.766;2.272;2023-12-07T06:22:45;17.70;;;11.77;;
10226;SDS011;15634;48.766;2.272;2023-12-07T06:25:11;21.25;;;11.85;;
10226;SDS011;15634;48.766;2.272;2023-12-07T06:27:37;19.45;;;11.60;;
10226;SDS011;15634;48.766;2.272;2023-12-07T06:30:03;19.88;;;11.65;;
10226;SDS011;15634;48.766;2.272;2023-12-07T06:32:32;17.58;;;10.80;;
10226;SDS011;15634;48.766;2.272;2023-12-07T06:34:59;20.20;;;12.63;;
10226;SDS011;15634;48.766;2.272;2023-12-07T06:37:25;20.45;;;11.57;;
10226;SDS011;15634;48.766;2.272;2023-12-07T06:39:51;19.88;;;12.00;;
10226;SDS011;15634;48.766;2.272;2023-12-07T06:42:17;19.92;;;11.52;;
10226;SDS011;15634;48.766;2.272;2023-12-07T06:44:45;17.75;;;11.23;;
10226;SDS011;15634;48.766;2.272;2023-12-07T06:47:13;19.50;;;12.13;;
10226;SDS011;15634;48.766;2.272;2023-12-07T06:49:39;21.92;;;12.18;;
10226;SDS011;15634;48.766;2.272;2023-12-07T06:52:05;21.17;;;10.63;;
10226;SDS011;15634;48.766;2.272;2023-12-07T06:54:30;18.15;;;11.52;;
10226;SDS011;15634;48.766;2.272;2023-12-07T06:56:56;15.68;;;10.13;;
10226;SDS011;15634;48.766;2.272;2023-12-07T06:59:22;20.80;;;10.50;;
10226;SDS011;15634;48.766;2.272;2023-12-07T07:01:48;16.10;;;9.95;;
10226;SDS011;15634;48.766;2.272;2023-12-07T07:04:14;18.05;;;10.20;;
10226;SDS011;15634;48.766;2.272;2023-12-07T07:06:41;16.90;;;9.18;;
10226;SDS011;15634;48.766;2.272;2023-12-07T07:09:07;14.68;;;9.30;;
10226;SDS011;15634;48.766;2.272;2023-12-07T07:11:33;15.98;;;9.93;;
10226;SDS011;15634;48.766;2.272;2023-12-07T07:13:59;17.73;;;9.52;;
10226;SDS011;15634;48.766;2.272;2023-12-07T07:16:25;16.92;;;9.43;;
10226;SDS011;15634;48.766;2.272;2023-12-07T07:18:51;17.30;;;9.90;;
10226;SDS011;15634;48.766;2.272;2023-12-07T07:21:17;16.40;;;9.93;;
10226;SDS011;15634;48.766;2.272;2023-12-07T07:23:44;18.75;;;10.07;;
10226;SDS011;15634;48.766;2.272;2023-12-07T07:26:10;14.68;;;9.68;;
10226;SDS011;15634;48.766;2.272;2023-12-07T07:28:41;13.80;;;9.48;;
10226;SDS011;15634;48.766;2.272;2023-12-07T07:31:07;15.60;;;9.23;;
10226;SDS011;15634;48.766;2.272;2023-12-07T07:33:33;15.63;;;9.25;;
10226;SDS011;15634;48.766;2.272;2023-12-07T07:35:59;17.52;;;9.60;;
10226;SDS011;15634;48.766;2.272;2023-12-07T07:38:25;14.40;;;8.57;;
10226;SDS011;15634;48.766;2.272;2023-12-07T07:40:51;15.20;;;9.00;;
10226;SDS011;15634;48.766;2.272;2023-12-07T07:43:17;17.77;;;9.38;;
10226;SDS011;15634;48.766;2.272;2023-12-07T07:45:43;14.57;;;8.40;;
10226;SDS011;15634;48.766;2.272;2023-12-07T07:48:09;13.25;;;8.43;;
10226;SDS011;15634;48.766;2.272;2023-12-07T07:50:35;16.63;;;9.20;;
10226;SDS011;15634;48.766;2.272;2023-12-07T07:53:01;13.15;;;8.10;;
10226;SDS011;15634;48.766;2.272;2023-12-07T07:55:28;13.15;;;8.38;;
10226;SDS011;15634;48.766;2.272;2023-12-07T07:57:54;13.65;;;7.88;;
10226;SDS011;15634;48.766;2.272;2023-12-07T08:00:20;13.88;;;8.95;;
10226;SDS011;15634;48.766;2.272;2023-12-07T08:02:46;15.02;;;8.63;;
10226;SDS011;15634;48.766;2.272;2023-12-07T08:05:12;15.00;;;7.93;;
10226;SDS011;15634;48.766;2.272;2023-12-07T08:07:41;13.20;;;8.07;;
10226;SDS011;15634;48.766;2.272;2023-12-07T08:10:07;17.45;;;7.82;;
10226;SDS011;15634;48.766;2.272;2023-12-07T08:12:34;13.52;;;8.38;;
10226;SDS011;15634;48.766;2.272;2023-12-07T08:15:00;15.23;;;8.52;;
10226;SDS011;15634;48.766;2.272;2023-12-07T08:17:26;13.48;;;8.57;;
10226;SDS011;15634;48.766;2.272;2023-12-07T08:19:52;15.73;;;9.23;;
10226;SDS011;15634;48.766;2.272;2023-12-07T08:22:18;14.63;;;8.45;;
10226;SDS011;15634;48.766;2.272;2023-12-07T08:24:45;14.45;;;7.93;;
10226;SDS011;15634;48.766;2.272;2023-12-07T08:27:11;12.45;;;7.95;;
10226;SDS011;15634;48.766;2.272;2023-12-07T08:29:36;12.27;;;8.60;;
10226;SDS011;15634;48.766;2.272;2023-12-07T08:32:02;12.48;;;8.13;;
10226;SDS011;15634;48.766;2.272;2023-12-07T08:34:28;15.05;;;8.70;;
10226;SDS011;15634;48.766;2.272;2023-12-07T08:36:55;14.05;;;8.63;;
10226;SDS011;15634;48.766;2.272;2023-12-07T08:39:21;15.40;;;9.07;;
10226;SDS011;15634;48.766;2.272;2023-12-07T08:41:46;15.20;;;9.18;;
10226;SDS011;15634;48.766;2.272;2023-12-07T08:44:12;13.50;;;8.30;;
10226;SDS011;15634;48.766;2.272;2023-12-07T08:46:38;12.98;;;8.38;;
10226;SDS011;15634;48.766;2.272;2023-12-07T08:49:04;13.38;;;8.27;;
10226;SDS011;15634;48.766;2.272;2023-12-07T08:51:31;15.10;;;7.85;;
10226;SDS011;15634;48.766;2.272;2023-12-07T08:53:57;13.60;;;8.65;;
10226;SDS011;15634;48.766;2.272;2023-12-07T08:56:23;13.88;;;7.95;;
10226;SDS011;15634;48.766;2.272;2023-12-07T08:58:49;14.68;;;8.60;;
10226;SDS011;15634;48.766;2.272;2023-12-07T09:01:16;11.57;;;7.55;;
10226;SDS011;15634;48.766;2.272;2023-12-07T09:03:41;11.95;;;7.50;;
10226;SDS011;15634;48.766;2.272;2023-12-07T09:06:07;13.07;;;7.70;;
10226;SDS011;15634;48.766;2.272;2023-12-07T09:08:33;12.27;;;7.63;;
10226;SDS011;15634;48.766;2.272;2023-12-07T09:10:59;14.90;;;8.68;;
10226;SDS011;15634;48.766;2.272;2023-12-07T09:13:25;13.70;;;7.75;;
10226;SDS011;15634;48.766;2.272;2023-12-07T09:15:52;11.18;;;7.65;;
10226;SDS011;15634;48.766;2.272;2023-12-07T09:18:19;14.57;;;7.75;;
10226;SDS011;15634;48.766;2.272;2023-12-07T09:20:44;13.15;;;8.05;;
10226;SDS011;15634;48.766;2.272;2023-12-07T09:23:11;11.88;;;7.65;;
10226;SDS011;15634;48.766;2.272;2023-12-07T09:25:38;11.30;;;7.70;;
10226;SDS011;15634;48.766;2.272;2023-12-07T09:28:04;12.05;;;7.82;;
10226;SDS011;15634;48.766;2.272;2023-12-07T09:30:30;14.88;;;7.93;;
10226;SDS011;15634;48.766;2.272;2023-12-07T09:32:58;13.20;;;7.93;;
10226;SDS011;15634;48.766;2.272;2023-12-07T09:35:24;13.05;;;7.47;;
10226;SDS011;15634;48.766;2.272;2023-12-07T09:37:51;11.38;;;7.05;;
10226;SDS011;15634;48.766;2.272;2023-12-07T09:40:19;9.80;;;6.75;;
10226;SDS011;15634;48.766;2.272;2023-12-07T09:42:46;12.18;;;7.07;;
10226;SDS011;15634;48.766;2.272;2023-12-07T09:45:12;12.48;;;7.53;;
10226;SDS011;15634;48.766;2.272;2023-12-07T09:47:39;10.90;;;7.38;;
10226;SDS011;15634;48.766;2.272;2023-12-07T09:50:07;13.75;;;7.65;;
10226;SDS011;15634;48.766;2.272;2023-12-07T09:52:33;14.18;;;7.30;;
10226;SDS011;15634;48.766;2.272;2023-12-07T09:55:00;12.35;;;7.25;;
10226;SDS011;15634;48.766;2.272;2023-12-07T09:57:27;12.75;;;6.95;;
10226;SDS011;15634;48.766;2.272;2023-12-07T09:59:53;11.63;;;6.72;;
10226;SDS011;15634;48.766;2.272;2023-12-07T10:02:20;12.98;;;7.03;;
10226;SDS011;15634;48.766;2.272;2023-12-07T10:04:46;11.35;;;7.20;;
10226;SDS011;15634;48.766;2.272;2023-12-07T10:07:13;14.35;;;7.40;;
10226;SDS011;15634;48.766;2.272;2023-12-07T10:09:39;12.50;;;8.10;;
10226;SDS011;15634;48.766;2.272;2023-12-07T10:12:06;13.25;;;7.68;;
10226;SDS011;15634;48.766;2.272;2023-12-07T10:14:32;12.45;;;7.57;;
10226;SDS011;15634;48.766;2.272;2023-12-07T10:16:59;12.93;;;7.47;;
10226;SDS011;15634;48.766;2.272;2023-12-07T10:19:25;14.52;;;7.88;;
10226;SDS011;15634;48.766;2.272;2023-12-07T10:21:52;14.75;;;8.10;;
10226;SDS011;15634;48.766;2.272;2023-12-07T10:24:19;12.73;;;7.75;;
10226;SDS011;15634;48.766;2.272;2023-12-07T10:26:45;15.90;;;8.88;;
10226;SDS011;15634;48.766;2.272;2023-12-07T10:29:12;13.60;;;8.40;;
10226;SDS011;15634;48.766;2.272;2023-12-07T10:31:38;14.15;;;8.77;;
10226;SDS011;15634;48.766;2.272;2023-12-07T10:34:04;11.85;;;8.73;;
10226;SDS011;15634;48.766;2.272;2023-12-07T10:36:30;12.75;;;8.63;;
10226;SDS011;15634;48.766;2.272;2023-12-07T10:38:57;17.27;;;8.90;;
10226;SDS011;15634;48.766;2.272;2023-12-07T10:41:24;12.85;;;8.93;;
10226;SDS011;15634;48.766;2.272;2023-12-07T10:43:54;12.10;;;8.23;;
10226;SDS011;15634;48.766;2.272;2023-12-07T10:46:24;12.75;;;7.72;;
10226;SDS011;15634;48.766;2.272;2023-12-07T10:49:00;12.57;;;8.27;;
10226;SDS011;15634;48.766;2.272;2023-12-07T10:51:34;11.82;;;7.97;;
10226;SDS011;15634;48.766;2.272;2023-12-07T10:54:05;10.65;;;7.53;;
10226;SDS011;15634;48.766;2.272;2023-12-07T10:56:40;11.40;;;7.20;;
10226;SDS011;15634;48.766;2.272;2023-12-07T10:59:08;13.77;;;7.45;;
10226;SDS011;15634;48.766;2.272;2023-12-07T11:01:38;10.20;;;6.57;;
10226;SDS011;15634;48.766;2.272;2023-12-07T11:04:05;11.20;;;7.35;;
10226;SDS011;15634;48.766;2.272;2023-12-07T11:06:32;12.05;;;7.07;;
10226;SDS011;15634;48.766;2.272;2023-12-07T11:08:59;11.15;;;6.35;;
10226;SDS011;15634;48.766;2.272;2023-12-07T11:14:02;13.73;;;7.68;;
10226;SDS011;15634;48.766;2.272;2023-12-07T11:16:32;10.68;;;6.47;;
10226;SDS011;15634;48.766;2.272;2023-12-07T11:19:00;12.30;;;6.30;;
10226;SDS011;15634;48.766;2.272;2023-12-07T11:21:28;11.70;;;6.95;;
10226;SDS011;15634;48.766;2.272;2023-12-07T11:23:54;10.07;;;6.68;;
10226;SDS011;15634;48.766;2.272;2023-12-07T11:26:23;13.00;;;7.18;;
10226;SDS011;15634;48.766;2.272;2023-12-07T11:28:50;12.48;;;6.82;;
10226;SDS011;15634;48.766;2.272;2023-12-07T11:31:16;11.23;;;7.07;;
10226;SDS011;15634;48.766;2.272;2023-12-07T11:33:42;11.32;;;6.70;;
10226;SDS011;15634;48.766;2.272;2023-12-07T11:36:09;11.95;;;6.80;;
10226;SDS011;15634;48.766;2.272;2023-12-07T11:38:38;10.07;;;6.53;;
10226;SDS011;15634;48.766;2.272;2023-12-07T11:41:04;10.55;;;5.97;;
10226;SDS011;15634;48.766;2.272;2023-12-07T11:43:36;10.02;;;5.95;;
10226;SDS011;15634;48.766;2.272;2023-12-07T11:46:09;8.77;;;5.95;;
10226;SDS011;15634;48.766;2.272;2023-12-07T11:48:35;10.48;;;5.90;;
10226;SDS011;15634;48.766;2.272;2023-12-07T11:51:02;10.55;;;5.90;;
10226;SDS011;15634;48.766;2.272;2023-12-07T11:53:29;8.30;;;5.55;;
10226;SDS011;15634;48.766;2.272;2023-12-07T11:55:55;9.32;;;5.85;;
10226;SDS011;15634;48.766;2.272;2023-12-07T11:58:22;10.75;;;6.15;;
10226;SDS011;15634;48.766;2.272;2023-12-07T12:00:52;14.65;;;6.15;;
10226;SDS011;15634;48.766;2.272;2023-12-07T12:03:19;9.95;;;5.63;;
10226;SDS011;15634;48.766;2.272;2023-12-07T12:05:45;8.52;;;6.18;;
10226;SDS011;15634;48.766;2.272;2023-12-07T12:08:11;10.05;;;6.32;;
10226;SDS011;15634;48.766;2.272;2023-12-07T12:10:37;10.95;;;6.22;;
10226;SDS011;15634;48.766;2.272;2023-12-07T12:13:04;8.77;;;6.63;;
10226;SDS011;15634;48.766;2.272;2023-12-07T12:15:30;10.60;;;6.00;;
10226;SDS011;15634;48.766;2.272;2023-12-07T12:17:57;9.18;;;6.40;;
10226;SDS011;15634;48.766;2.272;2023-12-07T12:20:26;9.75;;;5.75;;
10226;SDS011;15634;48.766;2.272;2023-12-07T12:22:52;12.95;;;6.45;;
10226;SDS011;15634;48.766;2.272;2023-12-07T12:25:19;13.55;;;5.78;;
10226;SDS011;15634;48.766;2.272;2023-12-07T12:27:46;9.75;;;5.97;;
10226;SDS011;15634;48.766;2.272;2023-12-07T12:30:12;12.90;;;6.72;;
10226;SDS011;15634;48.766;2.272;2023-12-07T12:32:42;11.15;;;6.43;;
10226;SDS011;15634;48.766;2.272;2023-12-07T12:35:08;12.00;;;6.80;;
10226;SDS011;15634;48.766;2.272;2023-12-07T12:37:34;8.55;;;6.07;;
10226;SDS011;15634;48.766;2.272;2023-12-07T12:40:06;11.90;;;6.40;;
10226;SDS011;15634;48.766;2.272;2023-12-07T12:42:33;10.20;;;5.95;;
10226;SDS011;15634;48.766;2.272;2023-12-07T12:44:59;8.18;;;6.00;;
10226;SDS011;15634;48.766;2.272;2023-12-07T12:47:25;13.32;;;7.10;;
10226;SDS011;15634;48.766;2.272;2023-12-07T12:49:51;9.48;;;5.95;;
10226;SDS011;15634;48.766;2.272;2023-12-07T12:52:17;10.35;;;5.78;;
10226;SDS011;15634;48.766;2.272;2023-12-07T12:54:43;12.73;;;6.07;;
10226;SDS011;15634;48.766;2.272;2023-12-07T12:57:09;10.07;;;5.82;;
10226;SDS011;15634;48.766;2.272;2023-12-07T12:59:35;8.93;;;5.85;;
10226;SDS011;15634;48.766;2.272;2023-12-07T13:02:04;9.40;;;5.60;;
10226;SDS011;15634;48.766;2.272;2023-12-07T13:04:30;7.70;;;5.35;;
10226;SDS011;15634;48.766;2.272;2023-12-07T13:06:56;11.00;;;5.78;;
10226;SDS011;15634;48.766;2.272;2023-12-07T13:09:23;8.10;;;5.75;;
10226;SDS011;15634;48.766;2.272;2023-12-07T13:11:49;10.50;;;5.82;;
10226;SDS011;15634;48.766;2.272;2023-12-07T13:14:14;10.30;;;5.18;;
10226;SDS011;15634;48.766;2.272;2023-12-07T13:16:40;8.02;;;5.38;;
10226;SDS011;15634;48.766;2.272;2023-12-07T13:19:06;8.95;;;5.45;;
10226;SDS011;15634;48.766;2.272;2023-12-07T13:21:32;7.75;;;5.07;;
10226;SDS011;15634;48.766;2.272;2023-12-07T13:23:58;8.43;;;5.03;;
10226;SDS011;15634;48.766;2.272;2023-12-07T13:26:24;10.52;;;5.70;;
10226;SDS011;15634;48.766;2.272;2023-12-07T13:28:50;10.60;;;5.75;;
10226;SDS011;15634;48.766;2.272;2023-12-07T13:31:17;9.05;;;5.15;;
10226;SDS011;15634;48.766;2.272;2023-12-07T13:33:43;9.10;;;5.68;;
10226;SDS011;15634;48.766;2.272;2023-12-07T13:36:09;10.93;;;4.95;;
10226;SDS011;15634;48.766;2.272;2023-12-07T13:38:35;10.57;;;5.50;;
10226;SDS011;15634;48.766;2.272;2023-12-07T13:41:00;8.18;;;4.93;;
10226;SDS011;15634;48.766;2.272;2023-12-07T13:43:27;8.68;;;5.28;;
10226;SDS011;15634;48.766;2.272;2023-12-07T13:45:54;8.50;;;4.65;;
10226;SDS011;15634;48.766;2.272;2023-12-07T13:48:20;9.18;;;4.53;;
10226;SDS011;15634;48.766;2.272;2023-12-07T13:50:46;9.90;;;5.63;;
10226;SDS011;15634;48.766;2.272;2023-12-07T13:53:13;9.80;;;5.07;;
10226;SDS011;15634;48.766;2.272;2023-12-07T13:55:39;8.90;;;5.15;;
10226;SDS011;15634;48.766;2.272;2023-12-07T13:58:05;7.65;;;4.72;;
10226;SDS011;15634;48.766;2.272;2023-12-07T14:00:34;9.15;;;5.32;;
10226;SDS011;15634;48.766;2.272;2023-12-07T14:03:00;9.07;;;4.70;;
10226;SDS011;15634;48.766;2.272;2023-12-07T14:05:26;9.35;;;4.60;;
10226;SDS011;15634;48.766;2.272;2023-12-07T14:07:53;8.50;;;4.95;;
10226;SDS011;15634;48.766;2.272;2023-12-07T14:10:19;6.03;;;4.30;;
10226;SDS011;15634;48.766;2.272;2023-12-07T14:12:46;7.90;;;4.35;;
10226;SDS011;15634;48.766;2.272;2023-12-07T14:15:11;9.00;;;4.63;;
10226;SDS011;15634;48.766;2.272;2023-12-07T14:17:37;8.68;;;5.05;;
10226;SDS011;15634;48.766;2.272;2023-12-07T14:20:04;8.10;;;4.40;;
10226;SDS011;15634;48.766;2.272;2023-12-07T14:22:31;6.53;;;4.38;;
10226;SDS011;15634;48.766;2.272;2023-12-07T14:24:56;6.88;;;4.47;;
10226;SDS011;15634;48.766;2.272;2023-12-07T14:27:22;7.70;;;5.05;;
10226;SDS011;15634;48.766;2.272;2023-12-07T14:29:50;8.57;;;4.82;;
10226;SDS011;15634;48.766;2.272;2023-12-07T14:32:16;7.18;;;4.65;;